Aeroboteco Virtual Airlines! Uma nuvem a frente.



 INFORMAÇÕES METEOROLÓGICAS
METAR FOR SCVM
ADDS - METARS form results

(1303 UTC 18 April 2019)
Data provider http://aviationweather.gov/metar/data/
 
METAR text: SCVM 181300Z 04003KT 3000 BR OVC008 12/10 Q1015
Conditions at: SCVM (VINA DEL MAR , CL) observed 1300 UTC 18 April 2019
Temperature: 12.0°C (54°F)
Dewpoint: 10.0°C (50°F) [RH = 88%]
Pressure (altimeter): 29.97 inches Hg (1015.0 mb)
Winds: from the NE (40 degrees) at 3 MPH (3 knots; 1.5 m/s)
Visibility: 1.86 miles (2.99 km)
Ceiling: 800 feet AGL
Clouds: overcast cloud deck at 800 feet AGL
Weather: BR  (mist)

 MAPA DO AEROPORTO

 INFORMAÇÕES DA PISTA
Pista 05 Tamanho da pista 5760 ft Largura da pista 98 ft
Elevação da pista 461 ft Ranhura da pista 0 ft Proa da pista 52
Pista 23 Tamanho da pista 5760 ft Largura da pista 98 ft
Elevação da pista 428 ft Ranhura da pista 0 ft Proa da pista 232

 FREQUÊNCIAS DO AEROPORTO
Tipo APP Nome SANTIAGO A Frequência 128.1 MHZ
Tipo GND Nome GND Frequência 121.85 MHZ
Tipo TWR Nome TWR Frequência 118.4 MHZ

 AUXÍLIOS DE NAVEGAÇÃO PRÓXIMOS AO AEROPORTO
Tipo NDB Nome Salinas Frequência 390 KHZ